Terminal Aerodrome Forecast
Issued by NWS

Home | Current Version | Previous Version | Text Only | Print | Product List | Glossary Off
Versions: 1 2 3 4 5 6 7 8 9 10 11 12 13 14 15 16 17

000
FTUS43 KMPX 181100
TAFRNH
TAF
KRNH 181124Z 1812/1912 10006KT P6SM SCT004 SCT015
      TEMPO 1812/1816 2SM BR BKN004
     FM181600 13006KT P6SM BKN025
     FM181700 14010KT P6SM SCT040=

USA.gov is the U.S. government's official web portal to all federal, state and local government web resources and services.